Time;durP1;ratioP1;P1;durP2;ratioP2;P2;SDS_P1;SDS_P2;PMS_P1;PMS_P2;Temp;Humidity;BMP_temperature;BMP_pressure;BME280_temperature;BME280_humidity;BME280_pressure;Samples;Min_cycle;Max_cycle;Signal;HPM_P1;HPM_P2
2024/05/05 00:01:00;;;;;;;4.47;4.07;;;12.70;99.90;;;;;;5347776;26;20235;-85
2024/05/05 00:03:29;;;;;;;4.75;4.32;;;12.70;99.90;;;;;;5347910;26;20263;-86
2024/05/05 00:05:58;;;;;;;4.60;4.30;;;12.70;99.90;;;;;;5347932;26;20722;-85
2024/05/05 00:08:24;;;;;;;4.63;4.30;;;12.70;99.90;;;;;;5347378;26;20722;-86
2024/05/05 00:10:53;;;;;;;4.27;3.97;;;12.70;99.90;;;;;;5347938;26;20581;-86
2024/05/05 00:13:25;;;;;;;4.73;4.37;;;12.60;99.90;;;;;;5347625;26;20730;-85
2024/05/05 00:15:53;;;;;;;5.33;4.20;;;12.60;99.90;;;;;;5347823;26;20330;-86
2024/05/05 00:18:22;;;;;;;5.30;4.53;;;12.60;99.90;;;;;;5346951;26;20352;-86
2024/05/05 00:20:51;;;;;;;4.95;4.43;;;12.60;99.90;;;;;;5348408;26;20271;-85
2024/05/05 00:23:19;;;;;;;5.37;4.87;;;12.60;99.90;;;;;;5347600;26;20329;-86
2024/05/05 00:25:50;;;;;;;4.70;4.30;;;12.50;99.90;;;;;;5332984;26;20354;-86
2024/05/05 00:28:19;;;;;;;4.90;4.50;;;12.50;99.90;;;;;;5347880;26;20659;-85
2024/05/05 00:30:50;;;;;;;4.50;4.10;;;12.50;99.90;;;;;;5322576;26;20781;-87
2024/05/05 00:33:19;;;;;;;4.43;4.13;;;12.50;99.90;;;;;;5327039;26;20329;-86
2024/05/05 00:35:48;;;;;;;4.57;4.17;;;12.50;99.90;;;;;;5347710;26;20332;-86
2024/05/05 00:38:16;;;;;;;4.50;4.13;;;12.40;99.90;;;;;;5347499;26;20247;-85
2024/05/05 00:40:45;;;;;;;4.60;4.30;;;12.40;99.90;;;;;;5338441;26;20346;-85
2024/05/05 00:43:14;;;;;;;4.63;4.23;;;12.40;99.90;;;;;;5347179;26;20252;-85
2024/05/05 00:45:42;;;;;;;4.80;4.37;;;12.30;99.90;;;;;;5347172;26;20721;-85
2024/05/05 00:48:14;;;;;;;4.80;4.40;;;12.20;99.90;;;;;;5347491;26;20311;-86
2024/05/05 00:50:43;;;;;;;4.30;4.00;;;12.20;99.90;;;;;;5347294;26;20327;-86
2024/05/05 00:53:13;;;;;;;4.00;3.73;;;12.20;99.90;;;;;;5337957;26;20254;-86
2024/05/05 00:55:43;;;;;;;4.70;4.30;;;12.10;99.90;;;;;;5347521;26;20333;-85
2024/05/05 00:58:12;;;;;;;4.00;3.70;;;12.10;99.90;;;;;;5347286;26;20283;-86
2024/05/05 01:00:41;;;;;;;4.20;3.90;;;12.10;99.90;;;;;;5351948;26;20340;-86
2024/05/05 01:03:10;;;;;;;4.20;3.90;;;12.10;99.90;;;;;;5347610;26;20228;-86
2024/05/05 01:05:42;;;;;;;4.30;4.00;;;12.00;99.90;;;;;;5347763;26;20235;-86
2024/05/05 01:08:12;;;;;;;3.83;3.53;;;12.00;99.90;;;;;;5347074;26;20251;-86
2024/05/05 01:10:40;;;;;;;4.70;4.30;;;12.00;99.90;;;;;;5346990;26;20243;-86
2024/05/05 01:13:09;;;;;;;4.00;3.70;;;12.00;99.90;;;;;;5347015;26;20749;-86
2024/05/05 01:15:38;;;;;;;3.83;3.47;;;11.90;99.90;;;;;;5346686;26;20293;-86
2024/05/05 01:18:07;;;;;;;4.13;3.83;;;11.80;99.90;;;;;;5346810;26;20283;-85
2024/05/05 01:20:35;;;;;;;4.23;3.83;;;11.80;99.90;;;;;;5346839;26;20283;-85
2024/05/05 01:23:07;;;;;;;3.70;3.40;;;11.90;99.90;;;;;;5347257;26;20378;-86
2024/05/05 01:25:35;;;;;;;3.83;3.53;;;11.80;99.90;;;;;;5347206;26;20295;-85
2024/05/05 01:28:04;;;;;;;4.03;3.73;;;11.80;99.90;;;;;;5346493;26;20335;-86
2024/05/05 01:30:33;;;;;;;3.77;3.47;;;11.70;99.90;;;;;;5342239;26;20263;-86
2024/05/05 01:33:02;;;;;;;3.33;3.13;;;11.70;99.90;;;;;;5347170;26;20687;-86
2024/05/05 01:35:30;;;;;;;3.03;2.83;;;11.70;99.90;;;;;;5347257;26;20231;-86
2024/05/05 01:37:59;;;;;;;4.20;3.80;;;11.70;99.90;;;;;;5347278;26;20291;-86
2024/05/05 01:40:30;;;;;;;3.20;3.00;;;11.70;99.90;;;;;;5353948;26;20348;-86
2024/05/05 01:42:59;;;;;;;3.40;3.20;;;11.70;99.90;;;;;;5347040;26;20295;-86
2024/05/05 01:45:28;;;;;;;3.73;3.40;;;11.60;99.90;;;;;;5347069;26;20731;-86
2024/05/05 01:47:56;;;;;;;3.40;3.10;;;11.60;99.90;;;;;;5344675;26;20289;-85
2024/05/05 01:50:25;;;;;;;3.60;3.30;;;11.60;99.90;;;;;;5356365;26;20719;-86
2024/05/05 01:52:54;;;;;;;3.53;3.27;;;11.60;99.90;;;;;;5342891;26;20325;-86
2024/05/05 01:55:22;;;;;;;3.40;3.20;;;11.60;99.90;;;;;;5346919;26;20270;-86
2024/05/05 01:57:54;;;;;;;3.10;2.90;;;11.60;99.90;;;;;;5346536;26;20247;-86
2024/05/05 02:00:23;;;;;;;3.67;3.33;;;11.50;99.90;;;;;;5344912;26;20248;-85
2024/05/05 02:02:51;;;;;;;3.97;3.57;;;11.50;99.90;;;;;;5340819;26;20714;-86
2024/05/05 02:05:20;;;;;;;3.80;3.37;;;11.40;99.90;;;;;;5344777;26;20707;-85
2024/05/05 02:07:49;;;;;;;3.17;2.97;;;11.50;99.90;;;;;;5330983;26;20369;-86
2024/05/05 02:10:17;;;;;;;3.30;3.10;;;11.40;99.90;;;;;;5328303;26;20303;-85
2024/05/05 02:12:46;;;;;;;2.90;2.70;;;11.40;99.90;;;;;;5340481;26;20334;-86
2024/05/05 02:15:17;;;;;;;3.20;2.90;;;11.40;99.90;;;;;;5344394;26;20352;-86
2024/05/05 02:17:46;;;;;;;3.00;2.80;;;11.40;99.90;;;;;;5336706;26;20303;-85
2024/05/05 02:20:15;;;;;;;3.00;2.80;;;11.30;99.90;;;;;;5344748;26;20342;-86
2024/05/05 02:22:44;;;;;;;3.00;2.80;;;11.20;99.90;;;;;;5345079;26;20239;-86
2024/05/05 02:25:12;;;;;;;3.10;2.90;;;11.30;99.90;;;;;;5342460;26;20308;-85
2024/05/05 02:27:41;;;;;;;3.10;2.90;;;11.30;99.90;;;;;;5349002;26;20259;-85
2024/05/05 02:30:10;;;;;;;3.10;2.90;;;11.20;99.90;;;;;;5337776;26;20359;-86
2024/05/05 02:32:41;;;;;;;3.20;3.00;;;11.20;99.90;;;;;;5346151;26;20256;-86
2024/05/05 02:35:10;;;;;;;3.10;2.90;;;11.10;99.90;;;;;;5344149;26;20274;-85
2024/05/05 02:37:40;;;;;;;3.20;2.90;;;11.10;99.90;;;;;;5337823;26;20299;-86
2024/05/05 02:40:10;;;;;;;3.20;3.00;;;11.10;99.90;;;;;;5341595;26;20294;-86
2024/05/05 02:42:39;;;;;;;3.17;2.97;;;11.10;99.90;;;;;;5345080;26;20374;-86
2024/05/05 02:45:08;;;;;;;3.30;3.03;;;11.20;99.90;;;;;;5349128;26;20329;-85
2024/05/05 02:47:37;;;;;;;2.90;2.70;;;11.10;99.90;;;;;;5343792;26;20315;-86
2024/05/05 02:50:09;;;;;;;3.83;3.10;;;11.10;99.90;;;;;;5348841;26;20362;-86
2024/05/05 02:52:37;;;;;;;3.20;3.00;;;11.10;99.90;;;;;;5350218;26;20255;-86
2024/05/05 02:55:09;;;;;;;2.90;2.70;;;11.00;99.90;;;;;;5349794;26;20373;-86
2024/05/05 02:57:38;;;;;;;3.13;2.93;;;11.10;99.90;;;;;;5346792;26;20638;-86
2024/05/05 03:00:09;;;;;;;3.70;3.40;;;11.10;99.90;;;;;;5351500;26;20702;-86
2024/05/05 03:02:37;;;;;;;4.20;2.83;;;11.10;99.90;;;;;;5348933;26;20282;-87
2024/05/05 03:05:09;;;;;;;3.40;3.20;;;11.10;99.90;;;;;;5352682;26;20259;-86
2024/05/05 03:07:38;;;;;;;4.07;3.23;;;11.10;99.90;;;;;;5346537;26;20254;-85
2024/05/05 03:10:08;;;;;;;3.30;3.03;;;11.00;99.90;;;;;;5348141;26;20322;-87
2024/05/05 03:12:36;;;;;;;3.03;2.83;;;10.90;99.90;;;;;;5350595;26;20267;-86
2024/05/05 03:15:05;;;;;;;3.40;3.20;;;10.90;99.90;;;;;;5348169;26;20307;-86
2024/05/05 03:17:34;;;;;;;3.27;3.07;;;10.90;99.90;;;;;;5348526;26;20255;-86
2024/05/05 03:20:03;;;;;;;4.33;3.20;;;10.90;99.90;;;;;;5348091;26;20247;-85
2024/05/05 03:22:37;;;;;;;3.30;3.10;;;10.90;99.90;;;;;;5347990;26;20339;-86
2024/05/05 03:25:06;;;;;;;3.50;3.27;;;10.90;99.90;;;;;;5348260;26;20291;-86
2024/05/05 03:27:35;;;;;;;3.30;3.10;;;10.80;99.90;;;;;;5350333;26;20365;-86
2024/05/05 03:30:04;;;;;;;3.40;3.10;;;10.80;99.90;;;;;;5342989;26;20247;-85
2024/05/05 03:32:33;;;;;;;3.20;3.00;;;10.80;99.90;;;;;;5346449;26;20251;-85
2024/05/05 03:35:01;;;;;;;3.10;2.90;;;10.80;99.90;;;;;;5348443;26;20243;-85
2024/05/05 03:37:30;;;;;;;3.30;3.00;;;10.80;99.90;;;;;;5353265;26;20348;-86
2024/05/05 03:40:02;;;;;;;3.63;3.33;;;10.70;99.90;;;;;;5348178;26;20243;-85
2024/05/05 03:42:30;;;;;;;3.80;3.17;;;10.70;99.90;;;;;;5345646;26;20336;-86
2024/05/05 03:44:59;;;;;;;2.80;2.60;;;10.70;99.90;;;;;;5348437;26;20249;-85
2024/05/05 03:47:28;;;;;;;2.73;2.63;;;10.90;99.90;;;;;;5348573;26;20295;-84
2024/05/05 03:49:56;;;;;;;2.80;2.60;;;11.00;99.90;;;;;;5349236;26;20310;-86
2024/05/05 03:52:25;;;;;;;3.23;2.60;;;11.00;99.90;;;;;;5347702;26;20243;-85
2024/05/05 03:54:54;;;;;;;3.00;2.63;;;11.00;99.90;;;;;;5341812;26;20769;-85
2024/05/05 03:57:25;;;;;;;2.60;2.40;;;11.10;99.90;;;;;;5355289;26;20277;-87
2024/05/05 03:59:54;;;;;;;3.00;2.37;;;11.20;99.90;;;;;;5361429;26;20390;-85
2024/05/05 04:02:22;;;;;;;2.60;2.40;;;11.20;99.90;;;;;;5354803;26;20246;-85
2024/05/05 04:04:51;;;;;;;3.00;2.70;;;11.20;99.90;;;;;;5363110;26;20301;-85
2024/05/05 04:07:20;;;;;;;2.90;2.70;;;11.10;99.90;;;;;;5359950;26;20243;-85
2024/05/05 04:09:48;;;;;;;3.73;2.80;;;11.00;99.90;;;;;;5347929;26;20240;-86
2024/05/05 04:12:17;;;;;;;2.90;2.70;;;10.80;99.90;;;;;;5345255;26;20698;-86
2024/05/05 04:14:48;;;;;;;3.13;2.93;;;10.80;99.90;;;;;;5346653;26;20311;-84
2024/05/05 04:17:17;;;;;;;2.93;2.73;;;10.80;99.90;;;;;;5341650;26;20934;-85
2024/05/05 04:19:46;;;;;;;2.73;2.53;;;10.90;99.90;;;;;;5347863;26;20348;-85
2024/05/05 04:22:14;;;;;;;2.90;2.70;;;10.90;99.90;;;;;;5348153;26;20240;-85
2024/05/05 04:24:43;;;;;;;3.07;2.80;;;10.90;99.90;;;;;;5348057;26;20318;-85
2024/05/05 04:27:12;;;;;;;2.93;2.70;;;10.80;99.90;;;;;;5346697;26;20333;-86
2024/05/05 04:29:40;;;;;;;3.07;2.77;;;10.90;99.90;;;;;;5347678;26;20311;-86
2024/05/05 04:32:12;;;;;;;2.87;2.60;;;11.00;99.90;;;;;;5340083;26;20444;-85
2024/05/05 04:34:41;;;;;;;3.03;2.83;;;11.00;99.90;;;;;;5346198;26;20259;-85
2024/05/05 04:37:09;;;;;;;2.90;2.60;;;11.20;99.90;;;;;;5343907;26;20336;-86
2024/05/05 04:39:38;;;;;;;2.47;2.27;;;11.30;99.90;;;;;;5347512;26;20629;-86
2024/05/05 04:42:07;;;;;;;2.93;2.73;;;11.30;99.90;;;;;;5347353;26;20842;-86
2024/05/05 04:44:36;;;;;;;2.33;2.20;;;11.30;99.90;;;;;;5344843;26;20235;-85
2024/05/05 04:47:05;;;;;;;2.40;2.30;;;11.40;99.90;;;;;;5347422;26;20313;-86
2024/05/05 04:49:36;;;;;;;2.10;2.00;;;11.50;99.90;;;;;;5353170;26;20244;-85
2024/05/05 04:52:05;;;;;;;2.20;2.10;;;11.50;99.90;;;;;;5347047;26;20243;-84
2024/05/05 04:54:35;;;;;;;2.70;2.10;;;11.60;99.90;;;;;;5347689;26;20247;-85
2024/05/05 04:57:04;;;;;;;2.00;1.90;;;11.60;99.90;;;;;;5347887;26;20339;-84
2024/05/05 04:59:33;;;;;;;1.93;1.83;;;11.60;99.90;;;;;;5347026;26;20344;-84
2024/05/05 05:02:02;;;;;;;2.70;1.93;;;11.70;99.90;;;;;;5346612;26;20243;-85
2024/05/05 05:04:30;;;;;;;1.77;1.67;;;11.70;99.90;;;;;;5347033;26;20305;-85
2024/05/05 05:07:02;;;;;;;1.97;1.87;;;11.70;99.90;;;;;;5346490;26;20240;-84
2024/05/05 05:09:31;;;;;;;1.80;1.70;;;11.80;99.90;;;;;;5344364;26;20278;-85
2024/05/05 05:12:01;;;;;;;1.93;1.80;;;11.80;99.90;;;;;;5347565;26;20243;-84
2024/05/05 05:14:30;;;;;;;2.27;1.90;;;11.80;99.90;;;;;;5347938;26;20232;-85
2024/05/05 05:16:59;;;;;;;1.97;1.70;;;11.90;99.90;;;;;;5347582;26;20588;-84
2024/05/05 05:19:25;;;;;;;1.80;1.70;;;11.80;99.90;;;;;;5348840;26;20248;-86
2024/05/05 05:21:54;;;;;;;2.10;1.90;;;11.90;99.90;;;;;;5347608;26;20247;-85
2024/05/05 05:24:27;;;;;;;2.00;1.80;;;11.90;99.90;;;;;;5347290;26;20303;-85
2024/05/05 05:26:56;;;;;;;1.77;1.67;;;12.00;99.90;;;;;;5341153;26;20287;-85
2024/05/05 05:29:25;;;;;;;1.80;1.70;;;12.10;99.90;;;;;;5347297;26;20294;-84
2024/05/05 05:31:54;;;;;;;2.17;1.60;;;12.20;99.90;;;;;;5345148;26;20251;-84
2024/05/05 05:34:22;;;;;;;1.37;1.37;;;12.30;99.90;;;;;;5348285;26;20244;-85
2024/05/05 05:36:51;;;;;;;2.07;1.60;;;12.50;99.90;;;;;;5345896;26;20231;-84
2024/05/05 05:39:22;;;;;;;1.70;1.60;;;12.60;99.90;;;;;;5342696;26;20248;-84
2024/05/05 05:42:03;;;;;;;1.50;1.40;;;12.70;99.90;;;;;;5344949;26;20273;-84
2024/05/05 05:44:43;;;;;;;1.60;1.50;;;12.80;99.90;;;;;;5342515;26;20290;-84
2024/05/05 05:47:12;;;;;;;2.97;1.63;;;13.00;99.90;;;;;;5349865;26;20234;-81
2024/05/05 05:49:40;;;;;;;1.40;1.30;;;13.10;99.90;;;;;;5348315;26;20319;-80
2024/05/05 05:52:09;;;;;;;1.30;1.20;;;13.20;99.90;;;;;;5345358;26;20916;-82
2024/05/05 05:54:41;;;;;;;2.00;1.50;;;13.30;99.90;;;;;;5345401;26;20263;-80
2024/05/05 05:57:12;;;;;;;1.70;1.60;;;13.40;99.90;;;;;;5347661;26;20247;-82
2024/05/05 05:59:41;;;;;;;2.67;1.50;;;13.50;99.90;;;;;;5345249;26;20305;-82
2024/05/05 06:02:09;;;;;;;1.67;1.30;;;13.70;99.90;;;;;;5345138;26;20851;-83
2024/05/05 06:04:38;;;;;;;1.50;1.40;;;13.70;99.90;;;;;;5348906;26;20291;-81
2024/05/05 06:07:07;;;;;;;1.40;1.17;;;13.70;99.90;;;;;;5347572;26;20248;-81
2024/05/05 06:09:35;;;;;;;1.17;1.17;;;13.80;99.90;;;;;;5347522;26;20620;-82
2024/05/05 06:12:04;;;;;;;2.65;1.42;;;13.80;99.90;;;;;;5340836;26;20247;-82
2024/05/05 06:14:36;;;;;;;1.83;1.30;;;13.90;99.90;;;;;;5346073;26;20350;-81
2024/05/05 06:17:04;;;;;;;1.35;1.25;;;14.00;99.90;;;;;;5345903;26;20814;-81
2024/05/05 06:19:33;;;;;;;1.80;1.30;;;14.00;99.90;;;;;;5347443;26;20422;-81
2024/05/05 06:22:02;;;;;;;1.38;1.30;;;14.10;99.90;;;;;;5344087;26;20266;-83
2024/05/05 06:24:31;;;;;;;1.30;1.20;;;14.20;99.90;;;;;;5347536;26;20307;-81
2024/05/05 06:26:59;;;;;;;1.20;1.20;;;14.30;99.90;;;;;;5346421;26;20663;-82
2024/05/05 06:29:28;;;;;;;1.33;1.10;;;14.40;99.90;;;;;;5343225;26;20336;-81
2024/05/05 06:31:59;;;;;;;2.03;1.10;;;14.60;99.90;;;;;;5353015;26;20380;-81
2024/05/05 06:34:28;;;;;;;1.30;1.20;;;14.60;99.90;;;;;;5344598;26;20263;-83
2024/05/05 06:36:57;;;;;;;1.08;1.00;;;14.60;99.90;;;;;;5360203;26;20244;-83
2024/05/05 06:39:26;;;;;;;1.15;1.05;;;14.70;99.90;;;;;;5340901;26;20290;-81
2024/05/05 06:41:54;;;;;;;1.92;1.10;;;14.70;99.90;;;;;;5339729;26;20251;-83
2024/05/05 06:44:23;;;;;;;0.90;0.90;;;14.70;99.90;;;;;;5348100;26;20727;-81
2024/05/05 06:46:52;;;;;;;1.55;0.85;;;14.70;99.90;;;;;;5344924;26;21924;-81
2024/05/05 06:49:23;;;;;;;1.80;1.00;;;14.80;99.90;;;;;;5350074;26;20243;-81
2024/05/05 06:51:53;;;;;;;1.00;1.00;;;14.90;99.90;;;;;;5345369;26;20733;-82
2024/05/05 06:54:21;;;;;;;1.10;1.00;;;15.00;99.90;;;;;;5345848;26;20251;-82
2024/05/05 06:56:50;;;;;;;1.45;0.80;;;15.20;99.90;;;;;;5345873;26;20243;-81
2024/05/05 06:59:19;;;;;;;1.00;0.80;;;15.30;99.90;;;;;;5345625;26;20389;-82
2024/05/05 07:01:50;;;;;;;1.17;1.08;;;15.40;99.90;;;;;;5346976;26;20329;-82
2024/05/05 07:04:21;;;;;;;0.80;0.80;;;15.50;99.90;;;;;;5345038;26;20696;-82
2024/05/05 07:06:55;;;;;;;2.28;1.30;;;15.60;99.90;;;;;;5336982;26;20637;-82
2024/05/05 07:09:30;;;;;;;1.00;0.95;;;15.70;99.90;;;;;;5345823;26;20246;-82
2024/05/05 07:11:59;;;;;;;1.63;0.90;;;15.70;99.90;;;;;;5342541;26;20777;-80
2024/05/05 07:14:27;;;;;;;1.48;0.90;;;15.80;99.90;;;;;;5340736;26;20317;-82
2024/05/05 07:16:58;;;;;;;0.70;0.70;;;15.70;99.90;;;;;;5345032;26;20311;-82
2024/05/05 07:19:30;;;;;;;0.60;0.60;;;15.80;99.90;;;;;;5338087;26;20243;-82
2024/05/05 07:22:04;;;;;;;1.13;0.60;;;15.80;99.90;;;;;;5352192;26;20372;-83
2024/05/05 07:24:38;;;;;;;0.52;0.47;;;16.00;99.90;;;;;;5346322;26;20247;-81
2024/05/05 07:27:10;;;;;;;0.70;0.60;;;16.30;99.90;;;;;;5345694;26;20569;-81
2024/05/05 07:29:38;;;;;;;0.50;0.50;;;16.60;99.90;;;;;;5342132;26;20259;-83
2024/05/05 07:32:08;;;;;;;0.60;0.60;;;16.60;99.90;;;;;;5340683;26;20382;-82
2024/05/05 07:34:40;;;;;;;0.70;0.70;;;16.70;99.90;;;;;;5348404;26;20941;-83
2024/05/05 07:37:11;;;;;;;0.57;0.57;;;16.80;99.90;;;;;;5346255;26;20408;-83
2024/05/05 07:39:43;;;;;;;0.50;0.50;;;16.80;99.90;;;;;;5350012;26;20252;-83
2024/05/05 07:42:12;;;;;;;1.05;0.88;;;16.90;99.90;;;;;;5349030;26;20291;-84
2024/05/05 07:44:41;;;;;;;1.67;0.60;;;17.10;99.90;;;;;;5348509;26;20243;-84
2024/05/05 07:47:10;;;;;;;1.20;0.70;;;17.10;99.90;;;;;;5348277;26;20587;-83
2024/05/05 07:49:39;;;;;;;0.50;0.50;;;17.00;99.90;;;;;;5348502;26;20263;-83
2024/05/05 07:52:11;;;;;;;0.80;0.57;;;17.00;99.90;;;;;;5347928;26;20244;-84
2024/05/05 07:54:45;;;;;;;0.60;0.60;;;16.90;99.90;;;;;;5348530;26;20358;-85
2024/05/05 07:57:16;;;;;;;0.65;0.52;;;16.90;99.90;;;;;;5354108;26;20229;-83
2024/05/05 07:59:45;;;;;;;0.80;0.80;;;17.10;99.90;;;;;;5347859;26;20348;-83
2024/05/05 08:02:14;;;;;;;1.42;0.60;;;17.20;99.90;;;;;;5348795;26;20247;-83
2024/05/05 08:04:42;;;;;;;2.22;0.75;;;17.20;99.90;;;;;;5348469;26;20354;-83
2024/05/05 08:07:14;;;;;;;2.05;0.63;;;17.20;99.90;;;;;;5349334;26;20239;-83
2024/05/05 08:09:43;;;;;;;0.70;0.70;;;17.20;99.90;;;;;;5349090;26;20386;-83
2024/05/05 08:12:11;;;;;;;1.55;0.52;;;17.20;99.90;;;;;;5349669;26;20243;-82
2024/05/05 08:14:40;;;;;;;1.35;0.60;;;17.20;99.90;;;;;;5349333;26;20343;-84
2024/05/05 08:17:09;;;;;;;0.85;0.60;;;17.20;99.90;;;;;;5350903;26;20283;-82
2024/05/05 08:19:38;;;;;;;2.05;0.80;;;17.30;99.90;;;;;;5350178;26;20626;-83
2024/05/05 08:22:07;;;;;;;0.70;0.63;;;17.30;99.90;;;;;;5357296;26;20311;-84
2024/05/05 08:24:38;;;;;;;1.58;0.55;;;17.20;99.90;;;;;;5349844;26;20354;-83
2024/05/05 08:27:07;;;;;;;0.55;0.52;;;17.20;99.90;;;;;;5349810;26;20243;-79
2024/05/05 08:29:40;;;;;;;0.63;0.63;;;17.30;99.90;;;;;;5349408;26;20260;-83
2024/05/05 08:32:09;;;;;;;1.52;0.70;;;17.50;99.90;;;;;;5338402;26;20267;-83
2024/05/05 08:34:38;;;;;;;0.77;0.63;;;17.50;99.90;;;;;;5347980;26;20270;-83
2024/05/05 08:37:07;;;;;;;0.80;0.70;;;17.50;99.90;;;;;;5345243;26;20240;-84
2024/05/05 08:39:42;;;;;;;0.88;0.60;;;17.50;99.90;;;;;;5365752;26;20248;-83
2024/05/05 08:42:14;;;;;;;1.08;0.68;;;17.60;99.90;;;;;;5349388;26;20811;-83
2024/05/05 08:44:43;;;;;;;1.30;0.50;;;17.70;99.90;;;;;;5349353;26;20282;-84
2024/05/05 08:47:13;;;;;;;1.35;0.63;;;18.10;99.90;;;;;;5349350;26;20278;-82
2024/05/05 08:49:42;;;;;;;1.35;0.60;;;18.40;99.90;;;;;;5350963;26;20256;-83
2024/05/05 08:52:12;;;;;;;0.60;0.52;;;18.70;99.90;;;;;;5347884;26;20378;-83
2024/05/05 08:54:43;;;;;;;0.63;0.50;;;18.70;99.80;;;;;;5349092;26;20239;-83
2024/05/05 08:57:13;;;;;;;0.60;0.60;;;18.90;99.20;;;;;;5348086;26;20303;-81
2024/05/05 08:59:43;;;;;;;0.85;0.70;;;18.90;98.40;;;;;;5348604;26;20251;-82
2024/05/05 09:02:13;;;;;;;0.65;0.65;;;18.60;97.80;;;;;;5349091;26;20710;-85
2024/05/05 09:04:42;;;;;;;0.70;0.70;;;18.40;98.10;;;;;;5347298;26;20289;-85
2024/05/05 09:07:11;;;;;;;1.25;0.70;;;18.40;99.10;;;;;;5347428;26;20330;-83
2024/05/05 09:09:43;;;;;;;0.63;0.60;;;18.40;98.70;;;;;;5347848;26;20307;-81
2024/05/05 09:12:13;;;;;;;0.80;0.70;;;18.40;98.80;;;;;;5348137;26;20714;-82
2024/05/05 09:14:43;;;;;;;0.65;0.50;;;18.40;98.30;;;;;;5348134;26;20278;-83
2024/05/05 09:17:14;;;;;;;1.55;0.60;;;18.60;99.60;;;;;;5344751;26;20719;-80
2024/05/05 09:19:46;;;;;;;0.65;0.60;;;18.70;98.20;;;;;;5346530;26;20306;-80
2024/05/05 09:22:18;;;;;;;0.60;0.60;;;18.60;97.50;;;;;;5344783;26;20761;-82
2024/05/05 09:24:52;;;;;;;2.08;0.70;;;18.50;98.50;;;;;;5386677;21;20342;-94
2024/05/05 09:27:21;;;;;;;1.10;0.50;;;18.40;97.40;;;;;;5368581;26;20238;-95
2024/05/05 09:30:08;;;;;;;0.77;0.70;;;18.30;97.70;;;;;;5371426;26;20285;-93
2024/05/05 09:32:38;;;;;;;0.60;0.60;;;18.10;97.70;;;;;;5342832;26;20241;-93
2024/05/05 09:35:08;;;;;;;0.93;0.60;;;18.20;98.80;;;;;;5331426;26;20244;-96
2024/05/05 09:37:37;;;;;;;0.70;0.70;;;18.40;98.20;;;;;;5337820;26;20244;-95
2024/05/05 09:40:11;;;;;;;0.70;0.70;;;18.60;99.20;;;;;;5335479;26;20244;-95
2024/05/05 09:42:40;;;;;;;0.47;0.47;;;18.80;98.50;;;;;;5331428;26;20255;-95
2024/05/05 09:45:09;;;;;;;0.80;0.80;;;18.90;97.50;;;;;;5330739;26;20283;-95
2024/05/05 09:47:50;;;;;;;0.80;0.60;;;19.10;97.80;;;;;;5333822;26;20236;-96
2024/05/05 09:50:29;;;;;;;0.68;0.50;;;19.50;97.90;;;;;;5333273;26;20271;-96
2024/05/05 09:53:07;;;;;;;1.50;0.65;;;20.00;96.20;;;;;;5329764;26;20247;-96
2024/05/05 09:55:44;;;;;;;0.68;0.60;;;20.60;96.70;;;;;;5329839;26;20294;-96
2024/05/05 09:58:23;;;;;;;0.65;0.60;;;20.70;93.60;;;;;;5329545;26;20244;-96
2024/05/05 10:01:02;;;;;;;;;;;;;;;;;;;;;
2024/05/05 10:03:32;;;;;;;0.95;0.88;;;20.10;94.80;;;;;;5331199;26;20240;-96
2024/05/05 10:06:01;;;;;;;0.77;0.77;;;19.80;94.70;;;;;;5334063;26;20241;-96
2024/05/05 10:08:40;;;;;;;0.40;0.40;;;19.50;94.10;;;;;;5331037;26;20240;-96
2024/05/05 10:11:12;;;;;;;1.05;0.50;;;19.50;95.00;;;;;;5330944;26;20251;-94
2024/05/05 10:13:41;;;;;;;0.60;0.60;;;19.70;94.90;;;;;;5330136;26;20303;-96
2024/05/05 10:16:11;;;;;;;0.73;0.65;;;20.10;95.40;;;;;;5334068;26;20244;-96
2024/05/05 10:18:49;;;;;;;0.43;0.43;;;20.50;94.60;;;;;;5330394;26;20262;-96
2024/05/05 10:21:28;;;;;;;1.25;0.50;;;20.60;93.20;;;;;;5330299;26;20307;-96
2024/05/05 10:23:56;;;;;;;4.82;3.20;;;20.30;92.40;;;;;;5332833;26;20240;-96
2024/05/05 10:26:28;;;;;;;1.38;1.02;;;20.20;93.60;;;;;;5334240;26;20245;-96
2024/05/05 10:28:57;;;;;;;3.17;2.70;;;20.00;93.50;;;;;;5331666;26;20251;-96
2024/05/05 10:31:25;;;;;;;1.30;1.20;;;19.90;93.50;;;;;;5311614;26;20299;-96
2024/05/05 10:33:55;;;;;;;0.85;0.73;;;19.60;92.90;;;;;;5329204;26;20224;-96
2024/05/05 10:36:26;;;;;;;1.33;0.52;;;19.50;93.90;;;;;;5324170;26;20308;-96
2024/05/05 10:38:57;;;;;;;0.63;0.40;;;19.40;94.80;;;;;;5332612;26;20232;-96
2024/05/05 10:41:29;;;;;;;0.30;0.30;;;19.30;96.90;;;;;;5332808;26;20287;-96
2024/05/05 10:43:57;;;;;;;0.30;0.30;;;19.20;95.50;;;;;;5330026;26;20232;-96
2024/05/05 10:46:33;;;;;;;0.60;0.50;;;19.20;97.30;;;;;;5332068;26;20248;-96
2024/05/05 10:49:02;;;;;;;0.63;0.30;;;19.40;96.60;;;;;;5325301;26;20335;-96
2024/05/05 10:51:32;;;;;;;0.73;0.50;;;19.70;97.10;;;;;;5324917;26;20276;-96
2024/05/05 10:54:01;;;;;;;0.40;0.38;;;19.60;95.20;;;;;;5336446;26;20241;-96
2024/05/05 10:56:37;;;;;;;0.73;0.40;;;19.60;94.90;;;;;;5332551;26;20244;-94
2024/05/05 10:59:06;;;;;;;0.63;0.45;;;19.40;95.60;;;;;;5331432;26;20267;-94
2024/05/05 11:01:34;;;;;;;0.75;0.40;;;19.20;94.80;;;;;;5333415;26;20266;-96
2024/05/05 11:04:04;;;;;;;0.40;0.40;;;18.90;93.90;;;;;;5341090;26;20240;-96
2024/05/05 11:06:35;;;;;;;0.32;0.32;;;18.50;94.60;;;;;;5338957;26;20232;-95
2024/05/05 11:09:05;;;;;;;0.40;0.40;;;18.20;95.10;;;;;;5333790;26;20245;-95
2024/05/05 11:11:43;;;;;;;0.40;0.40;;;18.00;97.00;;;;;;5335129;26;20245;-95
2024/05/05 11:14:12;;;;;;;0.47;0.47;;;17.90;98.00;;;;;;5335984;26;20244;-95
2024/05/05 11:16:45;;;;;;;1.10;0.60;;;17.80;98.00;;;;;;5335522;26;20241;-95
2024/05/05 11:19:14;;;;;;;0.30;0.30;;;17.80;99.10;;;;;;5336337;26;20296;-94
2024/05/05 11:21:43;;;;;;;0.50;0.50;;;17.80;98.60;;;;;;5337178;26;20256;-95
2024/05/05 11:24:11;;;;;;;0.32;0.32;;;17.80;98.10;;;;;;5335297;26;20253;-96
2024/05/05 11:26:42;;;;;;;0.63;0.40;;;17.80;98.90;;;;;;5337300;26;20291;-95
2024/05/05 11:29:11;;;;;;;2.40;0.57;;;17.80;99.10;;;;;;5335530;26;20233;-96
2024/05/05 11:31:40;;;;;;;2.10;0.60;;;18.00;99.80;;;;;;5309422;26;20299;-95
2024/05/05 11:34:09;;;;;;;1.35;0.30;;;18.20;98.70;;;;;;5332986;26;20319;-96
2024/05/05 11:36:37;;;;;;;0.40;0.25;;;18.50;98.90;;;;;;5346144;26;20313;-96
2024/05/05 11:39:16;;;;;;;;;;;;;;;;;;;;;
2024/05/05 11:42:25;;;;;;;0.60;0.38;;;19.40;99.10;;;;;;5340997;26;20245;-95
2024/05/05 11:44:53;;;;;;;1.00;0.28;;;19.70;98.40;;;;;;5335915;26;20283;-94
2024/05/05 11:48:14;;;;;;;0.20;0.20;;;19.70;97.20;;;;;;5336984;26;20233;-96
2024/05/05 11:51:32;;;;;;;0.30;0.30;;;19.90;98.00;;;;;;5334393;26;21589;-94
2024/05/05 11:54:01;;;;;;;1.23;0.50;;;20.30;98.90;;;;;;5339530;26;20227;-96
2024/05/05 11:56:30;;;;;;;1.00;0.80;;;20.20;97.70;;;;;;5337275;26;20249;-95
2024/05/05 11:59:01;;;;;;;0.30;0.30;;;20.00;98.50;;;;;;5340384;26;20275;-96
2024/05/05 12:02:03;;;;;;;1.15;0.50;;;19.90;98.60;;;;;;5332934;26;20304;-96
2024/05/05 12:04:36;;;;;;;0.40;0.30;;;20.00;99.30;;;;;;5331337;26;20260;-96
2024/05/05 12:07:19;;;;;;;0.30;0.30;;;20.10;99.90;;;;;;5333364;26;20299;-96
2024/05/05 12:10:18;;;;;;;3.30;0.55;;;20.50;99.90;;;;;;5332599;26;20244;-96
2024/05/05 12:12:48;;;;;;;1.27;0.40;;;21.00;97.00;;;;;;5332546;26;20275;-96
2024/05/05 12:15:21;;;;;;;1.33;0.75;;;20.90;97.60;;;;;;5331377;26;20255;-94
2024/05/05 12:17:52;;;;;;;1.02;0.55;;;21.10;98.40;;;;;;5331702;26;20293;-96
2024/05/05 12:20:29;;;;;;;0.40;0.30;;;21.10;97.00;;;;;;5332282;26;20260;-96
2024/05/05 12:22:59;;;;;;;2.38;1.20;;;20.70;96.40;;;;;;5331413;26;20280;-95
2024/05/05 12:25:27;;;;;;;1.38;0.20;;;20.60;97.70;;;;;;5327143;26;20237;-95
2024/05/05 12:28:29;;;;;;;0.52;0.20;;;20.50;97.60;;;;;;5332363;26;20229;-96
2024/05/05 12:31:00;;;;;;;0.52;0.25;;;20.30;96.50;;;;;;5311234;26;20239;-96
2024/05/05 12:33:29;;;;;;;0.82;0.43;;;20.10;97.50;;;;;;5328751;26;20233;-94
2024/05/05 12:35:58;;;;;;;0.85;0.55;;;20.00;97.20;;;;;;5329355;26;20241;-95
2024/05/05 12:38:26;;;;;;;1.00;0.30;;;19.90;97.60;;;;;;5332597;26;20263;-96
2024/05/05 12:40:55;;;;;;;0.73;0.30;;;19.80;97.40;;;;;;5326389;26;20287;-96
2024/05/05 12:43:24;;;;;;;0.45;0.30;;;19.60;97.60;;;;;;5335255;26;20271;-96
2024/05/05 12:46:17;;;;;;;0.28;0.25;;;19.70;97.70;;;;;;5334993;26;20240;-96
2024/05/05 12:49:24;;;;;;;0.35;0.20;;;19.80;98.40;;;;;;5331633;26;20256;-96
2024/05/05 12:51:53;;;;;;;0.95;0.47;;;20.30;98.60;;;;;;5326135;26;20243;-96
2024/05/05 12:54:21;;;;;;;0.60;0.45;;;20.60;97.70;;;;;;5333330;26;20260;-96
2024/05/05 12:56:50;;;;;;;0.20;0.20;;;20.60;97.60;;;;;;5332692;26;20261;-96
2024/05/05 12:59:29;;;;;;;;;;;;;;;;;;;;;
2024/05/05 13:02:10;;;;;;;0.40;0.30;;;21.70;95.60;;;;;;5334426;26;20267;-96
2024/05/05 13:04:39;;;;;;;0.30;0.28;;;23.00;95.20;;;;;;5337321;26;20275;-96
2024/05/05 13:07:12;;;;;;;2.25;0.40;;;24.00;93.00;;;;;;5343967;26;20292;-96
2024/05/05 13:09:40;;;;;;;0.63;0.15;;;24.20;90.10;;;;;;5340449;26;20259;-96